DW2080 Weather Reports


Display with metric or nautical units.
time (UTC)temp
F
wind
direction
speed
MPH
gust
MPH
rain 1hr
in
rain 24hr
in
rain mn
in
humidity
%
barometer
mb
20210921063027 80 201 0.0 2.0 0.00 0.00 0.00 86 1014.7
20210921061540 80 201 0.0 3.0 0.00 0.00 0.00 86 1014.7
20210921060044 80 163 0.0 2.0 0.00 0.00 0.00 86 1014.6
20210921054537 80 212 0.0 2.0 0.00 0.00 0.00 86 1014.6
20210921053050 80 198 0.0 3.0 0.00 0.00 0.00 86 1014.5
20210921051549 80 217 1.0 4.0 0.00 0.00 0.00 86 1014.5
20210921050053 80 224 0.0 3.0 0.00 0.00 0.00 86 1014.6
20210921044552 80 223 0.0 3.0 0.00 0.00 0.00 86 1014.4
20210921043022 81 225 0.0 4.0 0.00 0.00 0.00 85 1014.3
20210921041527 81 233 1.0 4.0 0.00 0.00 0.00 85 1014.2
20210921040037 81 194 0.0 3.0 0.00 0.00 0.00 85 1014.4
20210921034519 81 225 1.0 3.0 0.00 0.00 0.00 85 1014.5
20210921033036 81 192 0.0 5.0 0.00 0.00 0.00 85 1014.4
20210921031540 81 224 1.0 5.0 0.00 0.00 0.00 85 1014.2
20210921030023 81 227 1.0 4.0 0.00 0.00 0.00 85 1014.0
20210921024514 81 228 1.0 4.0 0.00 0.00 0.00 85 1013.9
20210921023202 81 223 2.0 5.0 0.00 0.00 0.00 85 1013.7
20210921021514 82 238 0.0 3.0 0.00 0.00 0.00 84 1013.5
20210921020014 82 200 0.0 4.0 0.00 0.00 0.00 84 1013.3
20210921014519 82 209 1.0 5.0 0.00 0.00 0.00 83 1013.1
20210921013015 82 214 1.0 5.0 0.00 0.00 0.00 83 1012.9
20210921011520 83 241 2.0 5.0 0.00 0.00 0.00 82 1012.8
20210921010034 83 231 1.0 5.0 0.00 0.00 0.00 81 1012.8
20210921004510 83 229 1.0 4.0 0.00 0.00 0.00 81 1012.7
20210921003031 84 227 1.0 5.0 0.00 0.00 0.00 79 1012.6
20210921001512 84 199 2.0 5.0 0.00 0.00 0.00 78 1012.5
20210921000019 85 234 2.0 6.0 0.00 0.00 0.00 77 1012.4
20210920234529 86 229 2.0 7.0 0.00 0.00 0.00 76 1012.3
20210920233006 86 235 3.0 7.0 0.00 0.00 0.00 75 1012.3
20210920231505 87 120 2.0 6.0 0.00 0.00 0.00 74 1012.4
20210920230035 88 226 3.0 8.0 0.00 0.00 0.00 72 1012.5
20210920224503 88 230 3.0 7.0 0.00 0.00 0.00 71 1012.3
20210920223004 89 128 2.0 9.0 0.00 0.00 0.00 72 1012.1
20210920221501 89 229 4.0 11.0 0.00 0.00 0.00 69 1012.1
20210920220005 90 228 3.0 8.0 0.00 0.00 0.00 67 1012.1
20210920214641 90 148 3.0 9.0 0.00 0.00 0.00 68 1012.1
20210920213143 90 209 2.0 9.0 0.00 0.00 0.00 68 1012.1
20210920211740 91 246 3.0 11.0 0.00 0.00 0.00 68 1012.3
20210920210218 91 188 4.0 9.0 0.00 0.00 0.00 66 1012.2
20210920204642 91 199 1.0 12.0 0.00 0.00 0.00 68 1012.3
20210920203102 91 154 3.0 11.0 0.00 0.00 0.00 69 1012.4
20210920201814 91 214 7.0 13.0 0.00 0.00 0.00 70 1012.6
20210920200140 92 200 3.0 9.0 0.00 0.00 0.00 69 1012.7
20210920194701 92 194 2.0 9.0 0.00 0.00 0.00 69 1012.8
20210920193108 92 148 5.0 11.0 0.00 0.00 0.00 69 1012.9
20210920191630 91 158 4.0 10.0 0.00 0.00 0.00 70 1013.0
20210920190129 91 188 3.0 7.0 0.00 0.00 0.00 68 1013.2
20210920184626 90 186 4.0 9.0 0.00 0.00 0.00 69 1013.3
20210920181614 92 167 5.0 11.0 0.00 0.00 0.00 67 1013.7
20210920180134 93 94 3.0 9.0 0.00 0.00 0.00 65 1013.8
20210920174559 92 205 3.0 9.0 0.00 0.00 0.00 66 1014.0
20210920173039 91 232 2.0 8.0 0.00 0.00 0.00 64 1014.1
20210920171627 91 254 1.0 7.0 0.00 0.00 0.00 66 1014.1
20210920170037 90 248 0.0 6.0 0.00 0.00 0.00 68 1014.2
20210920164541 90 305 5.0 9.0 0.00 0.00 0.00 67 1014.3
20210920163057 90 257 1.0 7.0 0.00 0.00 0.00 68 1014.4
20210920161541 90 263 3.0 8.0 0.00 0.00 0.00 68 1014.4
20210920160035 90 321 2.0 9.0 0.00 0.00 0.00 70 1014.3
20210920154608 88 256 3.0 8.0 0.00 0.00 0.00 72 1014.5
20210920153024 87 247 2.0 7.0 0.00 0.00 0.00 74 1014.4
20210920151532 87 218 2.0 8.0 0.00 0.00 0.00 76 1014.3
20210920150039 86 292 1.0 8.0 0.00 0.00 0.00 78 1014.3
20210920144517 85 223 3.0 8.0 0.00 0.00 0.00 80 1014.1
20210920143006 84 243 3.0 8.0 0.00 0.00 0.00 81 1014.0
20210920141508 83 308 2.0 8.0 0.00 0.00 0.00 84 1013.8
20210920140224 81 258 4.0 9.0 0.00 0.00 0.00 86 1013.6
20210920134634 80 288 2.0 3.0 0.00 0.00 0.00 86 1013.6
20210920133148 79 296 0.0 3.0 0.00 0.00 0.00 86 1013.6
20210920131604 78 239 0.0 2.0 0.00 0.00 0.00 86 1013.4
20210920130112 77 223 0.0 1.0 0.00 0.00 0.00 87 1013.3
20210920124701 76 223 0.0 0.0 0.00 0.00 0.00 87 1013.2
20210920123153 76 223 0.0 0.0 0.00 0.00 0.00 87 1013.1
20210920121605 76 223 0.0 0.0 0.00 0.00 0.00 87 1012.9
20210920120123 76 223 0.0 0.0 0.00 0.00 0.00 87 1012.8
20210920114605 76 223 0.0 0.0 0.00 0.00 0.00 87 1012.6
20210920113110 76 223 0.0 0.0 0.00 0.00 0.00 87 1012.4
20210920111631 76 223 0.0 0.0 0.00 0.00 0.00 87 1012.4
20210920110042 76 223 0.0 0.0 0.00 0.00 0.00 87 1012.4
20210920104556 77 223 0.0 0.0 0.00 0.00 0.00 87 1012.4
20210920103136 77 223 0.0 0.0 0.00 0.00 0.00 87 1012.3
20210920101547 77 225 0.0 0.0 0.00 0.00 0.00 86 1012.2
20210920100055 77 225 0.0 0.0 0.00 0.00 0.00 87 1012.2
20210920094553 77 225 0.0 0.0 0.00 0.00 0.00 86 1012.1
20210920093124 77 225 0.0 1.0 0.00 0.00 0.00 86 1012.2
20210920091546 77 225 0.0 0.0 0.00 0.00 0.00 86 1012.2
20210920090310 78 225 0.0 0.0 0.00 0.00 0.00 86 1012.3
20210920084539 78 225 0.0 0.0 0.00 0.00 0.00 86 1012.3
20210920083035 78 225 0.0 1.0 0.00 0.00 0.00 86 1012.4
20210920081538 78 225 0.0 1.0 0.00 0.00 0.00 86 1012.5
20210920080027 78 225 0.0 1.0 0.00 0.00 0.00 86 1012.5
20210920074525 78 226 0.0 4.0 0.00 0.00 0.00 85 1012.6
20210920073149 78 232 0.0 3.0 0.00 0.00 0.00 85 1012.6
20210920071523 79 236 0.0 3.0 0.00 0.00 0.00 85 1012.6
20210920070027 79 232 0.0 4.0 0.00 0.00 0.00 85 1012.7
20210920064522 79 217 0.0 3.0 0.00 0.00 0.00 85 1012.7